createdAt,value
2018-02-09T00:01:19.879Z,129.10
2018-02-09T00:03:47.842Z,126.03
2018-02-09T00:06:15.331Z,117.10
2018-02-09T00:08:42.839Z,125.65
2018-02-09T00:11:10.333Z,130.45
2018-02-09T00:13:37.830Z,121.93
2018-02-09T00:16:05.725Z,126.15
2018-02-09T00:18:33.240Z,128.27
2018-02-09T00:21:00.737Z,114.78
2018-02-09T00:23:28.330Z,122.30
2018-02-09T00:25:56.210Z,115.32
2018-02-09T00:28:24.113Z,129.87
2018-02-09T00:30:51.607Z,128.00
2018-02-09T00:33:19.108Z,135.37
2018-02-09T00:35:46.600Z,120.03
2018-02-09T00:38:14.504Z,117.37
2018-02-09T00:40:41.988Z,139.20
2018-02-09T00:43:09.494Z,130.30
2018-02-09T00:45:36.989Z,119.65
2018-02-09T00:48:04.958Z,135.02
2018-02-09T00:50:32.457Z,127.35
2018-02-09T00:52:59.968Z,116.72
2018-02-09T00:55:27.461Z,124.70
2018-02-09T00:57:54.974Z,113.70
2018-02-09T01:00:22.464Z,119.90
2018-02-09T01:02:49.977Z,113.72
2018-02-09T01:05:17.967Z,124.28
2018-02-09T01:07:45.466Z,132.20
2018-02-09T01:10:12.955Z,127.57
2018-02-09T01:12:40.463Z,126.47
2018-02-09T01:15:08.460Z,123.60
2018-02-09T01:17:35.968Z,125.12
2018-02-09T01:20:03.460Z,124.47
2018-02-09T01:22:30.999Z,124.07
2018-02-09T01:24:58.547Z,130.35
2018-02-09T01:27:26.040Z,138.98
2018-02-09T01:29:53.948Z,128.35
2018-02-09T01:32:21.491Z,119.57
2018-02-09T01:34:48.960Z,124.05
2018-02-09T01:37:16.864Z,128.98
2018-02-09T01:39:44.376Z,120.32
2018-02-09T01:42:11.864Z,108.57
2018-02-09T01:44:39.760Z,123.00
2018-02-09T01:47:07.648Z,125.55
2018-02-09T01:49:35.160Z,124.32
2018-02-09T01:52:02.654Z,122.40
2018-02-09T01:54:30.162Z,119.78
2018-02-09T01:56:57.648Z,123.87
2018-02-09T01:59:25.151Z,130.07
2018-02-09T02:01:52.637Z,118.57
2018-02-09T02:04:20.228Z,130.10
2018-02-09T02:06:48.111Z,119.20
2018-02-09T02:09:16.003Z,128.40
2018-02-09T02:11:43.486Z,117.05
2018-02-09T02:14:10.993Z,131.70
2018-02-09T02:16:38.480Z,113.85
2018-02-09T02:19:06.060Z,125.15
2018-02-09T02:21:33.658Z,121.37
2018-02-09T02:24:01.208Z,126.28
2018-02-09T02:26:29.194Z,122.43
2018-02-09T02:28:57.172Z,119.10
2018-02-09T02:31:25.069Z,120.95
2018-02-09T02:33:52.588Z,135.20
2018-02-09T02:36:20.085Z,128.62
2018-02-09T02:38:47.603Z,114.65
2018-02-09T02:41:15.097Z,131.05
2018-02-09T02:43:42.805Z,115.60
2018-02-09T02:46:10.334Z,118.20
2018-02-09T02:48:37.837Z,116.40
2018-02-09T02:51:05.331Z,126.32
2018-02-09T02:53:33.221Z,126.35
2018-02-09T02:56:00.726Z,122.95
2018-02-09T02:58:28.219Z,121.90
2018-02-09T03:00:55.727Z,116.78
2018-02-09T03:03:23.616Z,110.30
2018-02-09T03:05:51.128Z,110.43
2018-02-09T03:08:18.624Z,124.00
2018-02-09T03:10:46.127Z,123.28
2018-02-09T03:13:13.676Z,116.00
2018-02-09T03:15:41.188Z,109.25
2018-02-09T03:18:08.715Z,130.93
2018-02-09T03:20:36.228Z,125.47
2018-02-09T03:23:03.759Z,126.55
2018-02-09T03:25:31.268Z,130.12
2018-02-09T03:27:58.746Z,125.35
2018-02-09T03:30:26.260Z,130.20
2018-02-09T03:32:53.848Z,117.95
2018-02-09T03:35:21.750Z,117.78
2018-02-09T03:37:49.243Z,122.78
2018-02-09T03:40:16.763Z,127.38
2018-02-09T03:42:44.755Z,128.05
2018-02-09T03:45:12.651Z,120.10
2018-02-09T03:47:40.143Z,128.60
2018-02-09T03:50:07.648Z,125.35
2018-02-09T03:52:35.147Z,136.65
2018-02-09T03:55:03.038Z,122.60
2018-02-09T03:57:30.932Z,123.47
2018-02-09T03:59:58.450Z,128.48
2018-02-09T04:02:25.939Z,137.37
2018-02-09T04:04:53.448Z,116.47
2018-02-09T04:07:20.951Z,118.50
2018-02-09T04:09:48.458Z,124.05
2018-02-09T04:12:16.340Z,130.12
2018-02-09T04:14:44.304Z,112.57
2018-02-09T04:17:11.792Z,128.93
2018-02-09T04:19:39.680Z,122.78
2018-02-09T04:22:07.578Z,124.60
2018-02-09T04:24:35.120Z,118.68
2018-02-09T04:27:03.024Z,118.30
2018-02-09T04:29:30.589Z,112.65
2018-02-09T04:31:58.110Z,116.85
2018-02-09T04:34:25.609Z,127.65
2018-02-09T04:36:53.115Z,126.47
2018-02-09T04:39:20.602Z,115.20
2018-02-09T04:41:48.114Z,111.60
2018-02-09T04:44:15.609Z,115.25
2018-02-09T04:46:43.508Z,131.32
2018-02-09T04:49:11.053Z,132.30
2018-02-09T04:51:38.964Z,113.88
2018-02-09T04:54:06.462Z,127.55
2018-02-09T04:56:33.972Z,129.35
2018-02-09T04:59:01.860Z,119.93
2018-02-09T05:01:29.768Z,120.10
2018-02-09T05:03:57.255Z,122.20
2018-02-09T05:06:24.772Z,117.93
2018-02-09T05:08:52.251Z,120.57
2018-02-09T05:11:20.151Z,125.57
2018-02-09T05:13:47.655Z,120.60
2018-02-09T05:16:15.158Z,125.35
2018-02-09T05:18:43.443Z,116.30
2018-02-09T05:21:10.943Z,122.13
2018-02-09T05:23:38.432Z,119.78
2018-02-09T05:26:05.945Z,113.78
2018-02-09T05:28:33.527Z,133.37
2018-02-09T05:31:01.103Z,124.03
2018-02-09T05:33:28.674Z,126.05
2018-02-09T05:35:56.184Z,111.65
2018-02-09T05:38:23.663Z,121.53
2018-02-09T05:40:51.212Z,108.05
2018-02-09T05:43:18.701Z,116.70
2018-02-09T05:45:46.191Z,115.03
2018-02-09T05:48:13.690Z,114.88
2018-02-09T05:50:41.188Z,120.78
2018-02-09T05:53:09.095Z,121.32
2018-02-09T05:55:36.628Z,151.87
2018-02-09T05:58:04.608Z,125.53
2018-02-09T06:00:32.495Z,128.65
2018-02-09T06:03:00.464Z,151.18
2018-02-09T06:05:27.957Z,133.02
2018-02-09T06:07:55.856Z,121.65
2018-02-09T06:10:23.338Z,120.40
2018-02-09T06:12:50.839Z,131.90
2018-02-09T06:15:18.437Z,119.07
2018-02-09T06:17:46.402Z,119.60
2018-02-09T06:20:13.895Z,122.43
2018-02-09T06:22:41.855Z,124.03
2018-02-09T06:25:09.352Z,115.95
2018-02-09T06:27:37.255Z,119.82
2018-02-09T06:30:04.738Z,117.35
2018-02-09T06:32:32.248Z,106.47
2018-02-09T06:34:59.739Z,113.55
2018-02-09T06:37:27.639Z,122.32
2018-02-09T06:39:55.141Z,113.07
2018-02-09T06:42:22.648Z,124.35
2018-02-09T06:44:50.527Z,115.03
2018-02-09T06:47:18.498Z,121.62
2018-02-09T06:49:45.986Z,105.75
2018-02-09T06:52:13.887Z,122.72
2018-02-09T06:54:41.443Z,122.93
2018-02-09T06:57:09.343Z,131.23
2018-02-09T06:59:36.830Z,126.50
2018-02-09T07:02:04.341Z,124.50
2018-02-09T07:04:31.836Z,118.05
2018-02-09T07:06:59.741Z,122.85
2018-02-09T07:09:27.227Z,130.45
2018-02-09T07:11:54.706Z,126.45
2018-02-09T07:14:22.211Z,118.80
2018-02-09T07:16:50.103Z,123.90
2018-02-09T07:19:18.008Z,119.47
2018-02-09T07:21:45.500Z,131.70
2018-02-09T07:24:13.014Z,123.70
2018-02-09T07:26:40.505Z,147.07
2018-02-09T07:29:08.018Z,125.80
2018-02-09T07:31:35.507Z,133.60
2018-02-09T07:34:03.013Z,128.85
2018-02-09T07:36:30.512Z,128.62
2018-02-09T07:38:58.023Z,128.00
2018-02-09T07:41:25.516Z,128.52
2018-02-09T07:43:53.496Z,128.65
2018-02-09T07:46:21.382Z,126.07
2018-02-09T07:48:49.295Z,133.07
2018-02-09T07:51:16.791Z,137.48
2018-02-09T07:53:44.286Z,135.75
2018-02-09T07:56:11.785Z,126.60
2018-02-09T07:58:39.297Z,126.38
2018-02-09T08:01:06.788Z,127.85
2018-02-09T08:03:34.303Z,133.95
2018-02-09T08:06:01.801Z,127.78
2018-02-09T08:08:29.308Z,155.43
2018-02-09T08:10:56.883Z,124.72
2018-02-09T08:13:24.467Z,140.98
2018-02-09T08:15:52.351Z,146.52
2018-02-09T08:18:19.860Z,137.80
2018-02-09T08:20:47.352Z,127.25
2018-02-09T08:23:14.849Z,141.75
2018-02-09T08:25:42.340Z,121.03
2018-02-09T08:28:10.239Z,130.85
2018-02-09T08:30:37.787Z,114.65
2018-02-09T08:33:05.760Z,142.02
2018-02-09T08:35:33.739Z,143.73
2018-02-09T08:38:01.224Z,137.30
2018-02-09T08:40:29.286Z,139.40
2018-02-09T08:42:56.773Z,136.90
2018-02-09T08:45:24.679Z,133.07
2018-02-09T08:47:52.168Z,129.18
2018-02-09T08:50:19.671Z,137.98
2018-02-09T08:52:47.163Z,138.73
2018-02-09T08:55:15.072Z,140.85
2018-02-09T08:57:42.560Z,130.98
2018-02-09T09:00:10.249Z,136.27
2018-02-09T09:02:37.736Z,135.80
2018-02-09T09:05:05.251Z,124.38
2018-02-09T09:07:32.744Z,149.55
2018-02-09T09:10:00.248Z,143.80
2018-02-09T09:12:27.740Z,134.48
2018-02-09T09:14:55.666Z,123.70
2018-02-09T09:17:23.150Z,124.07
2018-02-09T09:19:50.655Z,124.50
2018-02-09T09:22:18.228Z,134.75
2018-02-09T09:24:46.132Z,110.75
2018-02-09T09:27:13.620Z,124.15
2018-02-09T09:29:41.138Z,112.43
2018-02-09T09:32:08.729Z,125.32
2018-02-09T09:34:36.256Z,118.93
2018-02-09T09:37:03.738Z,125.78
2018-02-09T09:39:31.235Z,109.68
2018-02-09T09:41:59.119Z,106.90
2018-02-09T09:44:27.095Z,117.40
2018-02-09T09:46:54.580Z,114.47
2018-02-09T09:49:22.552Z,108.82
2018-02-09T09:51:50.503Z,120.75
2018-02-09T09:54:18.028Z,105.18
2018-02-09T09:56:45.584Z,104.50
2018-02-09T09:59:13.478Z,100.00
2018-02-09T10:01:40.962Z,109.75
2018-02-09T10:04:08.487Z,106.10
2018-02-09T10:06:35.995Z,104.70
2018-02-09T10:09:03.483Z,92.00
2018-02-09T10:11:30.988Z,102.47
2018-02-09T10:13:58.571Z,108.65
2018-02-09T10:16:26.080Z,85.87
2018-02-09T10:18:53.563Z,94.10
2018-02-09T10:21:21.096Z,99.78
2018-02-09T10:23:48.983Z,89.22
2018-02-09T10:26:16.879Z,94.72
2018-02-09T10:28:44.424Z,102.95
2018-02-09T10:31:12.320Z,95.82
2018-02-09T10:33:39.803Z,105.95
2018-02-09T10:36:07.307Z,93.20
2018-02-09T10:38:34.816Z,92.90
2018-02-09T10:41:02.744Z,96.43
2018-02-09T10:43:30.262Z,108.28
2018-02-09T10:45:57.840Z,115.50
2018-02-09T10:48:25.728Z,103.28
2018-02-09T10:50:53.635Z,116.62
2018-02-09T10:53:21.123Z,105.10
2018-02-09T10:55:48.647Z,100.65
2018-02-09T10:58:16.540Z,110.18
2018-02-09T11:00:49.793Z,109.03
2018-02-09T11:03:17.281Z,98.40
2018-02-09T11:05:44.792Z,114.45
2018-02-09T11:08:12.280Z,105.03
2018-02-09T11:10:47.432Z,107.18
2018-02-09T11:13:15.874Z,109.63
2018-02-09T11:15:43.442Z,114.12
2018-02-09T11:18:10.944Z,96.15
2018-02-09T11:20:38.468Z,104.70
2018-02-09T11:23:05.972Z,114.70
2018-02-09T11:25:33.949Z,108.95
2018-02-09T11:28:01.829Z,104.80
2018-02-09T11:30:29.727Z,107.05
2018-02-09T11:32:57.242Z,115.18
2018-02-09T11:35:24.740Z,110.50
2018-02-09T11:37:52.226Z,101.03
2018-02-09T11:40:20.200Z,103.68
2018-02-09T11:42:48.096Z,98.45
2018-02-09T11:45:15.642Z,97.03
2018-02-09T11:47:43.152Z,99.70
2018-02-09T11:50:10.643Z,102.32
2018-02-09T11:52:38.143Z,88.47
2018-02-09T11:55:05.622Z,100.80
2018-02-09T11:57:33.120Z,95.20
2018-02-09T12:00:00.595Z,94.32
2018-02-09T12:02:28.090Z,92.47
2018-02-09T12:04:55.575Z,79.97
2018-02-09T12:07:23.088Z,102.93
2018-02-09T12:09:50.971Z,94.70
2018-02-09T12:12:18.944Z,95.20
2018-02-09T12:14:46.823Z,92.68
2018-02-09T12:17:14.794Z,91.85
2018-02-09T12:19:42.284Z,79.45
2018-02-09T12:22:10.182Z,86.68
2018-02-09T12:24:37.658Z,91.65
2018-02-09T12:27:05.156Z,84.28
2018-02-09T12:29:32.646Z,91.15
2018-02-09T12:32:00.139Z,81.30
2018-02-09T12:34:28.011Z,96.47
2018-02-09T12:36:55.584Z,80.28
2018-02-09T12:39:23.069Z,84.32
2018-02-09T12:41:50.950Z,90.05
2018-02-09T12:44:18.833Z,87.30
2018-02-09T12:46:46.795Z,90.32
2018-02-09T12:49:14.369Z,77.20
2018-02-09T12:51:41.885Z,79.80
2018-02-09T12:54:09.368Z,77.18
2018-02-09T12:56:36.879Z,76.72
2018-02-09T12:59:04.361Z,71.53
2018-02-09T13:01:32.251Z,74.40
2018-02-09T13:04:00.217Z,82.12
2018-02-09T13:06:28.100Z,82.80
2018-02-09T13:08:56.100Z,75.82
2018-02-09T13:11:23.643Z,70.30
2018-02-09T13:13:51.143Z,69.95
2018-02-09T13:16:18.636Z,69.35
2018-02-09T13:18:48.774Z,64.78
2018-02-09T13:21:16.260Z,55.50
2018-02-09T13:23:55.716Z,62.62
2018-02-09T13:26:23.191Z,66.90
2018-02-09T13:28:57.552Z,68.53
2018-02-09T13:31:25.476Z,70.95
2018-02-09T13:33:53.012Z,60.95
2018-02-09T13:36:32.820Z,53.78
2018-02-09T13:39:00.333Z,55.72
2018-02-09T13:41:28.230Z,47.28
2018-02-09T13:43:55.737Z,47.47
2018-02-09T13:46:23.218Z,51.15
2018-02-09T13:48:50.742Z,48.35
2018-02-09T13:51:19.104Z,47.03
2018-02-09T13:53:46.719Z,50.67
2018-02-09T13:56:14.195Z,47.70
2018-02-09T13:58:41.792Z,54.67
2018-02-09T14:01:09.271Z,48.70
2018-02-09T14:03:36.967Z,50.30
2018-02-09T14:06:04.557Z,46.97
2018-02-09T14:08:32.558Z,46.75
2018-02-09T14:11:00.041Z,49.58
2018-02-09T14:13:27.800Z,54.17
2018-02-09T14:15:55.284Z,49.05
2018-02-09T14:18:23.047Z,43.65
2018-02-09T14:20:50.560Z,61.05
2018-02-09T14:23:18.100Z,54.58
2018-02-09T14:25:45.662Z,48.95
2018-02-09T14:28:13.237Z,55.55
2018-02-09T14:30:40.748Z,43.50
2018-02-09T14:33:08.230Z,53.40
2018-02-09T14:35:35.822Z,48.70
2018-02-09T14:38:03.304Z,48.47
2018-02-09T14:40:31.200Z,43.03
2018-02-09T14:42:58.680Z,47.00
2018-02-09T14:45:26.217Z,46.20
2018-02-09T14:47:53.708Z,42.95
2018-02-09T14:50:21.626Z,42.08
2018-02-09T14:52:49.114Z,45.53
2018-02-09T14:55:16.666Z,42.75
2018-02-09T14:57:44.148Z,39.65
2018-02-09T15:00:11.680Z,34.15
2018-02-09T15:02:39.164Z,41.50
2018-02-09T15:05:06.669Z,42.40
2018-02-09T15:07:34.144Z,40.42
2018-02-09T15:10:01.700Z,39.33
2018-02-09T15:12:29.186Z,39.40
2018-02-09T15:14:56.687Z,38.97
2018-02-09T15:17:24.572Z,35.33
2018-02-09T15:19:52.559Z,35.58
2018-02-09T15:22:20.115Z,39.08
2018-02-09T15:24:48.218Z,35.50
2018-02-09T15:27:15.706Z,36.40
2018-02-09T15:29:43.223Z,34.88
2018-02-09T15:32:11.114Z,38.15
2018-02-09T15:34:38.608Z,36.03
2018-02-09T15:37:06.079Z,29.85
2018-02-09T15:39:33.638Z,35.08
2018-02-09T15:42:01.141Z,33.58
2018-02-09T15:44:28.635Z,34.92
2018-02-09T15:46:56.145Z,32.95
2018-02-09T15:49:24.075Z,32.83
2018-02-09T15:51:51.608Z,33.00
2018-02-09T15:54:19.517Z,38.55
2018-02-09T15:56:47.018Z,38.03
2018-02-09T15:59:14.512Z,34.67
2018-02-09T16:01:42.021Z,34.22
2018-02-09T16:04:09.556Z,35.45
2018-02-09T16:06:37.126Z,39.60
2018-02-09T16:09:04.587Z,36.33
2018-02-09T16:11:32.078Z,33.70
2018-02-09T16:13:59.999Z,39.20
2018-02-09T16:16:27.478Z,34.72
2018-02-09T16:18:54.983Z,41.47
2018-02-09T16:21:22.553Z,37.25
2018-02-09T16:23:50.034Z,35.63
2018-02-09T16:26:17.928Z,37.88
2018-02-09T16:28:45.896Z,39.33
2018-02-09T16:31:13.462Z,39.65
2018-02-09T16:33:40.957Z,39.90
2018-02-09T16:36:08.457Z,34.35
2018-02-09T16:38:35.939Z,39.05
2018-02-09T16:41:03.559Z,39.75
2018-02-09T16:43:31.437Z,31.17
2018-02-09T16:45:59.329Z,32.78
2018-02-09T16:48:26.812Z,38.97
2018-02-09T16:50:54.312Z,36.45
2018-02-09T16:53:21.827Z,31.27
2018-02-09T16:55:49.805Z,33.30
2018-02-09T16:58:17.684Z,36.33
2018-02-09T17:00:45.580Z,33.70
2018-02-09T17:03:13.459Z,33.42
2018-02-09T17:05:41.364Z,40.05
2018-02-09T17:08:08.848Z,39.67
2018-02-09T17:10:36.363Z,38.30
2018-02-09T17:13:03.843Z,34.97
2018-02-09T17:15:31.744Z,38.80
2018-02-09T17:17:59.231Z,34.97
2018-02-09T17:20:26.773Z,39.45
2018-02-09T17:22:54.739Z,38.60
2018-02-09T17:25:22.616Z,36.83
2018-02-09T17:27:50.132Z,33.65
2018-02-09T17:30:17.611Z,38.42
2018-02-09T17:32:45.136Z,39.88
2018-02-09T17:35:13.107Z,46.45
2018-02-09T17:37:40.608Z,44.08
2018-02-09T17:40:08.152Z,39.25
2018-02-09T17:42:35.652Z,32.95
2018-02-09T17:45:03.130Z,48.33
2018-02-09T17:47:30.655Z,44.92
2018-02-09T17:49:58.139Z,52.30
2018-02-09T17:52:26.027Z,46.47
2018-02-09T17:54:53.930Z,51.35
2018-02-09T17:57:21.436Z,43.10
2018-02-09T17:59:48.912Z,42.30
2018-02-09T18:02:16.416Z,43.87
2018-02-09T18:04:44.413Z,53.65
2018-02-09T18:07:11.913Z,44.15
2018-02-09T18:09:39.396Z,30.77
2018-02-09T18:12:06.901Z,38.83
2018-02-09T18:14:34.492Z,46.55
2018-02-09T18:17:02.081Z,44.05
2018-02-09T18:19:29.555Z,50.05
2018-02-09T18:21:57.110Z,49.22
2018-02-09T18:24:24.632Z,41.85
2018-02-09T18:26:52.124Z,47.22
2018-02-09T18:29:19.700Z,52.58
2018-02-09T18:31:47.226Z,43.58
2018-02-09T18:34:14.744Z,43.78
2018-02-09T18:36:42.244Z,45.40
2018-02-09T18:39:09.724Z,40.97
2018-02-09T18:41:37.255Z,51.60
2018-02-09T18:44:04.759Z,42.70
2018-02-09T18:46:32.234Z,47.58
2018-02-09T18:48:59.754Z,48.47
2018-02-09T18:51:27.248Z,49.67
2018-02-09T18:53:55.147Z,49.47
2018-02-09T18:56:22.632Z,42.78
2018-02-09T18:58:50.191Z,45.88
2018-02-09T19:01:17.644Z,47.70
2018-02-09T19:03:45.534Z,45.08
2018-02-09T19:06:13.020Z,39.58
2018-02-09T19:08:40.520Z,43.83
2018-02-09T19:11:08.020Z,52.45
2018-02-09T19:13:35.516Z,42.65
2018-02-09T19:16:02.995Z,35.47
2018-02-09T19:18:30.494Z,42.97
2018-02-09T19:20:57.985Z,36.67
2018-02-09T19:23:25.490Z,41.13
2018-02-09T19:25:53.038Z,40.30
2018-02-09T19:28:20.556Z,45.10
2018-02-09T19:30:48.045Z,45.90
2018-02-09T19:33:15.548Z,48.67
2018-02-09T19:35:43.035Z,41.00
2018-02-09T19:38:10.927Z,41.00
2018-02-09T19:40:38.812Z,43.92
2018-02-09T19:43:06.364Z,44.53
2018-02-09T19:45:34.239Z,47.88
2018-02-09T19:48:02.141Z,38.80
2018-02-09T19:50:29.632Z,37.72
2018-02-09T19:52:57.175Z,45.97
2018-02-09T19:55:25.056Z,36.25
2018-02-09T19:57:52.968Z,45.22
2018-02-09T20:00:20.449Z,42.78
2018-02-09T20:02:47.968Z,39.50
2018-02-09T20:05:15.848Z,37.00
2018-02-09T20:07:43.740Z,40.63
2018-02-09T20:10:11.626Z,34.40
2018-02-09T20:12:39.177Z,34.80
2018-02-09T20:15:07.109Z,35.75
2018-02-09T20:17:34.587Z,31.55
2018-02-09T20:20:02.084Z,37.95
2018-02-09T20:22:29.574Z,32.00
2018-02-09T20:24:57.476Z,39.65
2018-02-09T20:27:24.955Z,34.97
2018-02-09T20:29:52.456Z,37.40
2018-02-09T20:32:19.943Z,32.65
2018-02-09T20:34:47.443Z,35.67
2018-02-09T20:37:15.314Z,41.10
2018-02-09T20:39:43.287Z,32.60
2018-02-09T20:42:10.776Z,35.40
2018-02-09T20:44:38.664Z,33.60
2018-02-09T20:47:06.216Z,34.95
2018-02-09T20:49:34.110Z,37.83
2018-02-09T20:52:01.592Z,33.15
2018-02-09T20:54:29.082Z,40.42
2018-02-09T20:56:56.627Z,35.20
2018-02-09T20:59:24.115Z,41.13
2018-02-09T21:01:51.603Z,39.80
2018-02-09T21:04:19.110Z,41.28
2018-02-09T21:06:46.593Z,39.20
2018-02-09T21:09:14.496Z,36.70
2018-02-09T21:11:41.979Z,39.15
2018-02-09T21:14:09.499Z,40.00
2018-02-09T21:16:36.979Z,41.40
2018-02-09T21:19:04.870Z,37.67
2018-02-09T21:21:32.747Z,36.75
2018-02-09T21:24:00.741Z,37.78
2018-02-09T21:26:28.224Z,45.05
2018-02-09T21:28:55.728Z,44.65
2018-02-09T21:31:23.223Z,40.25
2018-02-09T21:33:50.718Z,42.05
2018-02-09T21:36:18.209Z,42.28
2018-02-09T21:38:45.692Z,47.22
2018-02-09T21:41:13.220Z,37.85
2018-02-09T21:43:41.096Z,39.55
2018-02-09T21:46:08.992Z,33.88
2018-02-09T21:48:36.471Z,42.97
2018-02-09T21:51:04.012Z,40.15
2018-02-09T21:53:31.982Z,39.67
2018-02-09T21:55:59.577Z,45.10
2018-02-09T21:58:27.456Z,43.65
2018-02-09T22:00:55.356Z,42.13
2018-02-09T22:03:22.839Z,45.03
2018-02-09T22:05:50.466Z,44.92
2018-02-09T22:08:17.953Z,42.10
2018-02-09T22:10:45.920Z,38.58
2018-02-09T22:13:13.491Z,35.42
2018-02-09T22:15:40.983Z,39.40
2018-02-09T22:18:08.469Z,43.30
2018-02-09T22:20:36.008Z,39.90
2018-02-09T22:23:03.878Z,44.63
2018-02-09T22:25:31.380Z,41.20
2018-02-09T22:27:58.859Z,41.22
2018-02-09T22:30:26.355Z,40.17
2018-02-09T22:32:53.868Z,42.70
2018-02-09T22:35:21.873Z,44.85
2018-02-09T22:37:49.415Z,41.67
2018-02-09T22:40:16.912Z,46.08
2018-02-09T22:42:44.787Z,41.30
2018-02-09T22:45:12.751Z,40.72
2018-02-09T22:47:40.628Z,44.20
2018-02-09T22:50:08.190Z,41.53
2018-02-09T22:52:35.667Z,47.05
2018-02-09T22:55:03.171Z,39.22
2018-02-09T22:57:30.664Z,46.03
2018-02-09T22:59:58.168Z,43.55
2018-02-09T23:02:25.642Z,42.15
2018-02-09T23:04:53.131Z,47.50
2018-02-09T23:07:21.112Z,44.25
2018-02-09T23:09:49.088Z,43.13
2018-02-09T23:12:16.587Z,42.45
2018-02-09T23:14:44.128Z,44.95
2018-02-09T23:17:11.722Z,40.10
2018-02-09T23:19:39.605Z,40.78
2018-02-09T23:22:07.104Z,43.25
2018-02-09T23:24:34.587Z,43.65
2018-02-09T23:27:02.091Z,40.30
2018-02-09T23:29:29.576Z,44.45
2018-02-09T23:31:57.544Z,45.10
2018-02-09T23:34:25.031Z,44.22
2018-02-09T23:36:52.922Z,42.00
2018-02-09T23:39:20.398Z,48.85
2018-02-09T23:41:47.904Z,43.50
2018-02-09T23:44:15.388Z,39.75
2018-02-09T23:46:42.991Z,42.83
2018-02-09T23:49:10.868Z,45.65
2018-02-09T23:51:38.772Z,40.92
2018-02-09T23:54:06.251Z,42.20
2018-02-09T23:56:33.747Z,42.30
2018-02-09T23:59:01.277Z,43.13
